Time;durP1;ratioP1;P1;durP2;ratioP2;P2;SDS_P1;SDS_P2;PMS_P1;PMS_P2;Temp;Humidity;BMP_temperature;BMP_pressure;BME280_temperature;BME280_humidity;BME280_pressure;Samples;Min_cycle;Max_cycle;Signal;HPM_P1;HPM_P2
2022/09/10 00:00:45;;;;;;;10.20;2.17;;;;;;;;;;5026772;28;20283;-65
2022/09/10 00:03:10;;;;;;;8.57;1.52;;;;;;;;;;5029993;28;20142;-65
2022/09/10 00:05:39;;;;;;;8.93;1.23;;;;;;;;;;5026787;28;20067;-67
2022/09/10 00:08:05;;;;;;;6.05;1.30;;;;;;;;;;5026824;28;20342;-65
2022/09/10 00:10:31;;;;;;;13.95;2.63;;;;;;;;;;5027266;28;20060;-65
2022/09/10 00:12:56;;;;;;;5.20;1.05;;;;;;;;;;5029580;28;20071;-65
2022/09/10 00:15:21;;;;;;;7.65;1.52;;;;;;;;;;5026131;28;20020;-66
2022/09/10 00:17:47;;;;;;;3.08;1.30;;;;;;;;;;5030018;28;20025;-65
2022/09/10 00:20:12;;;;;;;3.87;1.00;;;;;;;;;;5025740;28;20490;-65
2022/09/10 00:22:37;;;;;;;4.73;1.00;;;;;;;;;;5027284;28;20297;-65
2022/09/10 00:25:03;;;;;;;8.52;1.40;;;;;;;;;;5027683;28;20648;-66
2022/09/10 00:27:28;;;;;;;3.17;1.08;;;;;;;;;;5028929;28;20032;-66
2022/09/10 00:29:53;;;;;;;6.23;2.20;;;;;;;;;;5024705;28;20398;-65
2022/09/10 00:32:20;;;;;;;5.97;1.70;;;;;;;;;;5023806;28;20093;-65
2022/09/10 00:34:45;;;;;;;6.97;1.52;;;;;;;;;;5025436;28;20283;-66
2022/09/10 00:37:11;;;;;;;6.97;1.42;;;;;;;;;;5025831;28;20025;-66
2022/09/10 00:39:37;;;;;;;5.00;1.38;;;;;;;;;;5028532;28;20026;-66
2022/09/10 00:42:02;;;;;;;7.22;2.53;;;;;;;;;;5027920;28;20025;-66
2022/09/10 00:44:38;;;;;;;4.78;2.03;;;;;;;;;;5029665;28;20553;-65
2022/09/10 00:47:03;;;;;;;8.52;2.17;;;;;;;;;;5026977;28;20013;-65
2022/09/10 00:49:34;;;;;;;7.05;1.42;;;;;;;;;;5028661;28;20025;-66
2022/09/10 00:52:00;;;;;;;10.68;1.48;;;;;;;;;;5026647;28;20083;-65
2022/09/10 00:54:27;;;;;;;8.57;1.80;;;;;;;;;;5028493;28;20025;-66
2022/09/10 00:56:53;;;;;;;7.35;1.63;;;;;;;;;;5026595;28;20053;-65
2022/09/10 00:59:20;;;;;;;6.30;1.27;;;;;;;;;;5028405;28;20589;-66
2022/09/10 01:01:46;;;;;;;4.60;1.58;;;;;;;;;;5027567;28;20026;-66
2022/09/10 01:04:11;;;;;;;9.77;1.85;;;;;;;;;;5027662;28;20482;-65
2022/09/10 01:06:38;;;;;;;3.47;1.17;;;;;;;;;;5026571;28;20044;-65
2022/09/10 01:09:03;;;;;;;8.00;1.23;;;;;;;;;;5032108;28;20021;-66
2022/09/10 01:11:44;;;;;;;4.65;1.63;;;;;;;;;;5029579;28;20029;-66
2022/09/10 01:14:28;;;;;;;5.65;1.02;;;;;;;;;;5034792;28;20017;-66
2022/09/10 01:17:02;;;;;;;7.25;1.67;;;;;;;;;;5030854;28;20036;-66
2022/09/10 01:19:27;;;;;;;6.40;1.70;;;;;;;;;;5037291;28;20017;-66
2022/09/10 01:22:03;;;;;;;5.63;1.35;;;;;;;;;;5029030;28;20037;-66
2022/09/10 01:24:40;;;;;;;3.33;1.17;;;;;;;;;;5033189;28;20034;-66
2022/09/10 01:27:05;;;;;;;4.45;1.27;;;;;;;;;;5029895;28;20469;-66
2022/09/10 01:29:40;;;;;;;6.05;1.40;;;;;;;;;;5033087;28;20074;-66
2022/09/10 01:32:14;;;;;;;6.47;1.60;;;;;;;;;;5028723;28;20087;-66
2022/09/10 01:34:46;;;;;;;4.70;1.50;;;;;;;;;;5032153;28;20096;-66
2022/09/10 01:37:14;;;;;;;6.97;1.55;;;;;;;;;;5031004;28;20092;-66
2022/09/10 01:39:40;;;;;;;8.65;1.50;;;;;;;;;;5029557;28;20508;-66
2022/09/10 01:42:05;;;;;;;8.85;1.38;;;;;;;;;;5032192;28;20033;-66
2022/09/10 01:44:44;;;;;;;8.38;1.80;;;;;;;;;;5030012;28;20628;-66
2022/09/10 01:47:13;;;;;;;10.37;1.70;;;;;;;;;;5033059;28;20108;-66
2022/09/10 01:49:59;;;;;;;3.15;1.40;;;;;;;;;;5030461;28;20317;-67
2022/09/10 01:52:29;;;;;;;9.50;2.15;;;;;;;;;;5004933;28;20373;-66
2022/09/10 01:54:55;;;;;;;10.30;1.63;;;;;;;;;;5029504;28;20017;-66
2022/09/10 01:57:29;;;;;;;6.93;2.00;;;;;;;;;;5031789;28;20474;-66
2022/09/10 02:00:08;;;;;;;7.47;1.67;;;;;;;;;;5027404;28;20085;-66
2022/09/10 02:03:03;;;;;;;5.38;1.63;;;;;;;;;;5027148;28;20033;-66
2022/09/10 02:05:29;;;;;;;4.57;1.55;;;;;;;;;;5015072;28;20037;-66
2022/09/10 02:08:02;;;;;;;7.50;1.70;;;;;;;;;;5030758;28;20025;-66
2022/09/10 02:10:27;;;;;;;7.32;2.28;;;;;;;;;;5034364;28;20045;-66
2022/09/10 02:12:53;;;;;;;6.95;1.65;;;;;;;;;;5032008;28;20061;-66
2022/09/10 02:15:20;;;;;;;4.93;1.80;;;;;;;;;;5029964;28;20029;-66
2022/09/10 02:17:45;;;;;;;5.93;1.65;;;;;;;;;;5031390;28;20272;-66
2022/09/10 02:20:13;;;;;;;6.63;1.83;;;;;;;;;;5029726;28;20051;-65
2022/09/10 02:22:39;;;;;;;6.50;1.70;;;;;;;;;;5030728;28;20451;-66
2022/09/10 02:25:05;;;;;;;9.00;2.17;;;;;;;;;;5029498;28;20032;-66
2022/09/10 02:27:30;;;;;;;4.32;1.60;;;;;;;;;;5032237;28;20478;-66
2022/09/10 02:29:56;;;;;;;3.50;1.50;;;;;;;;;;5025078;28;20617;-69
2022/09/10 02:32:21;;;;;;;5.68;1.85;;;;;;;;;;5032269;28;20139;-65
2022/09/10 02:34:47;;;;;;;7.80;1.48;;;;;;;;;;5029543;28;20100;-65
2022/09/10 02:37:12;;;;;;;6.78;1.42;;;;;;;;;;5030651;28;20033;-66
2022/09/10 02:39:37;;;;;;;8.15;1.50;;;;;;;;;;5030641;28;20017;-66
2022/09/10 02:42:02;;;;;;;8.63;2.00;;;;;;;;;;5029270;28;20026;-65
2022/09/10 02:44:28;;;;;;;5.35;1.67;;;;;;;;;;5030755;28;20120;-65
2022/09/10 02:46:53;;;;;;;9.30;2.13;;;;;;;;;;5030833;28;20033;-66
2022/09/10 02:49:19;;;;;;;6.55;1.40;;;;;;;;;;5029769;28;20063;-65
2022/09/10 02:51:45;;;;;;;7.35;2.00;;;;;;;;;;5027007;28;20063;-65
2022/09/10 02:54:10;;;;;;;7.30;1.85;;;;;;;;;;5026381;28;21428;-65
2022/09/10 02:56:35;;;;;;;5.68;1.92;;;;;;;;;;5028241;28;20025;-65
2022/09/10 02:59:00;;;;;;;7.93;2.43;;;;;;;;;;5034132;28;20845;-65
2022/09/10 03:01:26;;;;;;;5.73;1.30;;;;;;;;;;5027200;28;20288;-65
2022/09/10 03:03:57;;;;;;;8.25;1.70;;;;;;;;;;5030270;28;20022;-65
2022/09/10 03:06:22;;;;;;;;;;;;;;;;;;5030335;28;20433;-65
2022/09/10 03:08:48;;;;;;;7.45;1.55;;;;;;;;;;5031965;28;20259;-65
2022/09/10 03:11:15;;;;;;;5.28;1.63;;;;;;;;;;5032312;28;20030;-65
2022/09/10 03:13:41;;;;;;;5.97;1.95;;;;;;;;;;5030805;28;20029;-66
2022/09/10 03:16:08;;;;;;;9.40;1.98;;;;;;;;;;5031583;28;20053;-65
2022/09/10 03:18:34;;;;;;;4.60;1.45;;;;;;;;;;5031234;28;20399;-65
2022/09/10 03:21:17;;;;;;;3.90;1.30;;;;;;;;;;5029065;28;20108;-66
2022/09/10 03:23:43;;;;;;;6.13;1.52;;;;;;;;;;5031090;28;20029;-66
2022/09/10 03:26:09;;;;;;;6.00;2.53;;;;;;;;;;5028613;28;20386;-66
2022/09/10 03:28:34;;;;;;;3.55;1.45;;;;;;;;;;5035468;28;20030;-66
2022/09/10 03:31:00;;;;;;;7.93;1.23;;;;;;;;;;5026657;28;20087;-66
2022/09/10 03:33:25;;;;;;;4.95;1.40;;;;;;;;;;5030580;28;20036;-66
2022/09/10 03:35:53;;;;;;;7.25;1.38;;;;;;;;;;5026984;28;20104;-66
2022/09/10 03:38:18;;;;;;;2.40;1.17;;;;;;;;;;5030796;28;20029;-66
2022/09/10 03:40:43;;;;;;;5.88;1.40;;;;;;;;;;5026821;28;20418;-66
2022/09/10 03:43:08;;;;;;;4.47;1.40;;;;;;;;;;5039328;28;20021;-66
2022/09/10 03:45:33;;;;;;;2.93;1.20;;;;;;;;;;5028190;28;21092;-66
2022/09/10 03:47:59;;;;;;;4.20;1.92;;;;;;;;;;5028681;28;20026;-66
2022/09/10 03:50:25;;;;;;;2.60;1.30;;;;;;;;;;5029465;28;20025;-66
2022/09/10 03:52:50;;;;;;;4.65;1.08;;;;;;;;;;5028798;28;20367;-66
2022/09/10 03:55:16;;;;;;;2.45;0.75;;;;;;;;;;5028991;28;20101;-66
2022/09/10 03:57:41;;;;;;;6.78;1.80;;;;;;;;;;5030299;28;20105;-66
2022/09/10 04:00:10;;;;;;;4.77;1.20;;;;;;;;;;5027225;28;20104;-66
2022/09/10 04:02:35;;;;;;;4.57;1.42;;;;;;;;;;5027197;28;21067;-66
2022/09/10 04:05:01;;;;;;;5.63;1.42;;;;;;;;;;5029610;28;20021;-66
2022/09/10 04:07:26;;;;;;;7.80;1.07;;;;;;;;;;5029177;28;20532;-66
2022/09/10 04:09:51;;;;;;;4.20;1.13;;;;;;;;;;5027849;28;20285;-66
2022/09/10 04:12:16;;;;;;;3.37;1.33;;;;;;;;;;5023812;28;20375;-66
2022/09/10 04:14:44;;;;;;;4.00;1.13;;;;;;;;;;5029379;28;20272;-66
2022/09/10 04:17:09;;;;;;;5.82;1.10;;;;;;;;;;5027955;28;20018;-66
2022/09/10 04:19:34;;;;;;;3.83;1.10;;;;;;;;;;5028331;28;20071;-66
2022/09/10 04:21:59;;;;;;;7.20;1.43;;;;;;;;;;5028870;28;20025;-66
2022/09/10 04:24:25;;;;;;;3.13;1.73;;;;;;;;;;5026554;28;20014;-66
2022/09/10 04:26:50;;;;;;;3.25;1.17;;;;;;;;;;5026991;28;20283;-67
2022/09/10 04:29:16;;;;;;;5.93;1.10;;;;;;;;;;5027726;28;20029;-66
2022/09/10 04:31:41;;;;;;;5.75;2.05;;;;;;;;;;5027881;28;20021;-66
2022/09/10 04:34:06;;;;;;;5.53;1.20;;;;;;;;;;5029059;28;20039;-66
2022/09/10 04:36:32;;;;;;;3.88;1.42;;;;;;;;;;5026645;28;20268;-66
2022/09/10 04:38:57;;;;;;;6.93;1.45;;;;;;;;;;5025477;28;20029;-66
2022/09/10 04:41:23;;;;;;;7.00;1.30;;;;;;;;;;5024157;28;20409;-66
2022/09/10 04:43:48;;;;;;;4.93;1.30;;;;;;;;;;5027539;28;20041;-66
2022/09/10 04:46:13;;;;;;;3.22;1.40;;;;;;;;;;5026886;28;20018;-66
2022/09/10 04:48:38;;;;;;;4.78;1.23;;;;;;;;;;5030315;28;20024;-66
2022/09/10 04:51:04;;;;;;;5.18;1.80;;;;;;;;;;5036635;28;20025;-66
2022/09/10 04:53:30;;;;;;;3.20;1.38;;;;;;;;;;5030771;28;20407;-66
2022/09/10 04:55:55;;;;;;;2.95;1.27;;;;;;;;;;5024532;28;20104;-66
2022/09/10 04:58:21;;;;;;;5.45;1.40;;;;;;;;;;5029457;28;20018;-66
2022/09/10 05:00:46;;;;;;;5.18;1.42;;;;;;;;;;5029213;28;20022;-66
2022/09/10 05:03:12;;;;;;;7.23;1.70;;;;;;;;;;5030579;28;20033;-66
2022/09/10 05:05:38;;;;;;;2.30;1.27;;;;;;;;;;5042490;28;20271;-66
2022/09/10 05:08:04;;;;;;;7.05;1.77;;;;;;;;;;5031362;28;20048;-66
2022/09/10 05:10:29;;;;;;;5.65;1.77;;;;;;;;;;5028103;28;20088;-66
2022/09/10 05:12:55;;;;;;;3.53;1.20;;;;;;;;;;5029682;28;20053;-66
2022/09/10 05:15:21;;;;;;;5.95;1.25;;;;;;;;;;5031128;28;20025;-66
2022/09/10 05:17:46;;;;;;;3.40;1.52;;;;;;;;;;5030323;28;20101;-66
2022/09/10 05:20:12;;;;;;;5.30;1.63;;;;;;;;;;5028369;28;20482;-67
2022/09/10 05:22:37;;;;;;;4.53;1.33;;;;;;;;;;5025339;28;20022;-66
2022/09/10 05:25:02;;;;;;;3.38;1.50;;;;;;;;;;5028023;28;20108;-66
2022/09/10 05:27:28;;;;;;;3.00;1.15;;;;;;;;;;5026461;28;20029;-66
2022/09/10 05:29:53;;;;;;;7.37;1.40;;;;;;;;;;5025451;28;20028;-66
2022/09/10 05:32:18;;;;;;;5.77;1.40;;;;;;;;;;5028991;28;20795;-66
2022/09/10 05:34:47;;;;;;;3.83;2.03;;;;;;;;;;5026438;28;20281;-66
2022/09/10 05:37:12;;;;;;;5.85;1.45;;;;;;;;;;5023841;28;20280;-66
2022/09/10 05:39:37;;;;;;;11.25;1.40;;;;;;;;;;5027774;28;20155;-66
2022/09/10 05:42:03;;;;;;;3.65;1.77;;;;;;;;;;5026857;28;20025;-66
2022/09/10 05:44:28;;;;;;;6.63;1.92;;;;;;;;;;5026069;28;20022;-66
2022/09/10 05:46:53;;;;;;;8.35;1.58;;;;;;;;;;5026331;28;20478;-66
2022/09/10 05:49:18;;;;;;;5.28;1.48;;;;;;;;;;5028495;28;20017;-66
2022/09/10 05:51:43;;;;;;;3.40;1.23;;;;;;;;;;5027556;28;20036;-66
2022/09/10 05:54:10;;;;;;;2.13;0.90;;;;;;;;;;5027015;28;20346;-66
2022/09/10 05:56:35;;;;;;;2.95;1.25;;;;;;;;;;5033067;28;20243;-66
2022/09/10 05:59:01;;;;;;;9.17;1.57;;;;;;;;;;5031082;28;20021;-68
2022/09/10 06:01:28;;;;;;;5.10;1.45;;;;;;;;;;5031946;28;20275;-65
2022/09/10 06:03:53;;;;;;;8.32;1.40;;;;;;;;;;5030076;28;20125;-66
2022/09/10 06:06:18;;;;;;;3.38;1.38;;;;;;;;;;5028641;28;20112;-66
2022/09/10 06:08:43;;;;;;;4.78;1.27;;;;;;;;;;5031758;28;20109;-66
2022/09/10 06:11:09;;;;;;;7.70;1.77;;;;;;;;;;5032113;28;20045;-66
2022/09/10 06:13:36;;;;;;;4.63;1.50;;;;;;;;;;5029801;28;20292;-66
2022/09/10 06:16:02;;;;;;;7.80;1.27;;;;;;;;;;5031003;28;20025;-66
2022/09/10 06:18:27;;;;;;;2.47;0.95;;;;;;;;;;5031667;28;20466;-66
2022/09/10 06:21:23;;;;;;;2.63;1.23;;;;;;;;;;5032319;28;20017;-66
2022/09/10 06:23:51;;;;;;;7.97;1.20;;;;;;;;;;5018331;28;20091;-66
2022/09/10 06:26:17;;;;;;;2.72;1.02;;;;;;;;;;5031136;28;20543;-66
2022/09/10 06:28:43;;;;;;;7.40;1.40;;;;;;;;;;5029609;28;20036;-67
2022/09/10 06:31:13;;;;;;;3.25;1.33;;;;;;;;;;5031360;28;20101;-66
2022/09/10 06:33:38;;;;;;;3.05;1.10;;;;;;;;;;5030449;28;20086;-66
2022/09/10 06:36:03;;;;;;;3.25;0.90;;;;;;;;;;5029447;28;20025;-66
2022/09/10 06:38:35;;;;;;;2.88;1.25;;;;;;;;;;5031281;28;20405;-66
2022/09/10 06:41:03;;;;;;;5.90;1.33;;;;;;;;;;5022824;28;20029;-66
2022/09/10 06:43:31;;;;;;;3.38;2.28;;;;;;;;;;5026632;28;20461;-66
2022/09/10 06:45:56;;;;;;;1.70;1.00;;;;;;;;;;5029952;28;21231;-66
2022/09/10 06:48:26;;;;;;;3.50;1.03;;;;;;;;;;5039123;28;20101;-66
2022/09/10 06:50:52;;;;;;;5.93;1.40;;;;;;;;;;5028994;28;20635;-66
2022/09/10 06:53:20;;;;;;;3.08;1.33;;;;;;;;;;5036563;28;20025;-67
2022/09/10 06:55:45;;;;;;;3.92;1.00;;;;;;;;;;5027086;28;20028;-67
2022/09/10 06:58:10;;;;;;;7.90;1.50;;;;;;;;;;5029518;28;20112;-67
2022/09/10 07:00:38;;;;;;;7.83;1.40;;;;;;;;;;5030587;28;20760;-66
2022/09/10 07:03:03;;;;;;;3.15;1.05;;;;;;;;;;5034120;28;20287;-67
2022/09/10 07:05:31;;;;;;;6.43;1.30;;;;;;;;;;5025934;28;20025;-67
2022/09/10 07:07:56;;;;;;;2.30;1.20;;;;;;;;;;5027193;28;20284;-67
2022/09/10 07:10:21;;;;;;;2.92;1.48;;;;;;;;;;5026494;28;20047;-67
2022/09/10 07:12:46;;;;;;;4.20;1.70;;;;;;;;;;5028245;28;20473;-66
2022/09/10 07:15:12;;;;;;;6.50;1.73;;;;;;;;;;5030044;28;20029;-66
2022/09/10 07:17:37;;;;;;;5.63;1.58;;;;;;;;;;5026240;28;20272;-66
2022/09/10 07:20:02;;;;;;;7.67;2.10;;;;;;;;;;5026603;28;20017;-66
2022/09/10 07:22:27;;;;;;;5.60;2.15;;;;;;;;;;5021723;28;20295;-66
2022/09/10 07:24:54;;;;;;;5.40;1.60;;;;;;;;;;5028455;28;20025;-66
2022/09/10 07:27:20;;;;;;;6.20;1.63;;;;;;;;;;5024203;28;20268;-66
2022/09/10 07:29:45;;;;;;;6.68;1.52;;;;;;;;;;5028179;28;20029;-66
2022/09/10 07:32:10;;;;;;;5.37;1.63;;;;;;;;;;5028222;28;20036;-66
2022/09/10 07:34:36;;;;;;;5.33;1.70;;;;;;;;;;5020601;28;20320;-66
2022/09/10 07:37:01;;;;;;;5.30;1.58;;;;;;;;;;5030603;28;20736;-66
2022/09/10 07:39:26;;;;;;;9.17;1.70;;;;;;;;;;5028231;28;20063;-66
2022/09/10 07:41:52;;;;;;;4.53;1.37;;;;;;;;;;5026972;28;20362;-66
2022/09/10 07:44:18;;;;;;;4.70;2.25;;;;;;;;;;5027955;28;20260;-66
2022/09/10 07:46:45;;;;;;;5.15;1.50;;;;;;;;;;5027134;28;20026;-66
2022/09/10 07:49:10;;;;;;;3.08;1.45;;;;;;;;;;5027271;28;20024;-66
2022/09/10 07:51:35;;;;;;;4.55;1.65;;;;;;;;;;5027101;28;20021;-66
2022/09/10 07:54:00;;;;;;;6.00;1.70;;;;;;;;;;5030011;28;20044;-66
2022/09/10 07:56:26;;;;;;;6.55;1.48;;;;;;;;;;5029608;28;20413;-66
2022/09/10 07:58:52;;;;;;;5.15;1.30;;;;;;;;;;5028556;28;20486;-66
2022/09/10 08:01:18;;;;;;;2.22;1.40;;;;;;;;;;5029167;28;20017;-66
2022/09/10 08:03:43;;;;;;;9.57;1.70;;;;;;;;;;5027896;28;20040;-66
2022/09/10 08:06:09;;;;;;;4.53;1.85;;;;;;;;;;5040324;28;20168;-66
2022/09/10 08:08:36;;;;;;;4.07;1.42;;;;;;;;;;5028847;28;20386;-66
2022/09/10 08:11:04;;;;;;;4.75;1.50;;;;;;;;;;5027449;28;20093;-66
2022/09/10 08:13:31;;;;;;;7.72;1.80;;;;;;;;;;5026778;28;20420;-66
2022/09/10 08:15:56;;;;;;;2.42;1.40;;;;;;;;;;5025183;28;20545;-66
2022/09/10 08:18:21;;;;;;;12.93;2.40;;;;;;;;;;5026036;28;20124;-65
2022/09/10 08:20:52;;;;;;;5.50;2.15;;;;;;;;;;5023598;28;20044;-66
2022/09/10 08:23:18;;;;;;;10.75;2.10;;;;;;;;;;5026416;28;20029;-67
2022/09/10 08:25:52;;;;;;;7.70;2.15;;;;;;;;;;5026383;28;20444;-65
2022/09/10 08:28:18;;;;;;;10.35;1.95;;;;;;;;;;5025175;28;20068;-66
2022/09/10 08:30:55;;;;;;;7.80;1.70;;;;;;;;;;5025264;28;20069;-67
2022/09/10 08:33:20;;;;;;;4.88;1.40;;;;;;;;;;5023015;28;20021;-66
2022/09/10 08:35:50;;;;;;;3.50;2.10;;;;;;;;;;5023764;28;20383;-67
2022/09/10 08:38:15;;;;;;;7.90;2.22;;;;;;;;;;5023965;28;20358;-67
2022/09/10 08:40:41;;;;;;;8.57;2.80;;;;;;;;;;5025656;28;20029;-67
2022/09/10 08:43:07;;;;;;;9.57;2.65;;;;;;;;;;5025157;28;20095;-65
2022/09/10 08:45:32;;;;;;;6.05;2.28;;;;;;;;;;5025925;28;20031;-66
2022/09/10 08:48:01;;;;;;;3.53;2.28;;;;;;;;;;5020550;28;20029;-68
2022/09/10 08:50:31;;;;;;;7.72;1.83;;;;;;;;;;5019305;28;20025;-65
2022/09/10 08:53:03;;;;;;;5.18;2.30;;;;;;;;;;5026668;28;20030;-65
2022/09/10 08:55:32;;;;;;;11.13;3.00;;;;;;;;;;5027963;28;20069;-66
2022/09/10 08:58:10;;;;;;;13.05;2.22;;;;;;;;;;5025562;28;20417;-66
2022/09/10 09:00:39;;;;;;;15.32;2.72;;;;;;;;;;5024810;28;20030;-67
2022/09/10 09:03:17;;;;;;;9.80;2.70;;;;;;;;;;5025989;28;20022;-65
2022/09/10 09:05:53;;;;;;;7.28;2.75;;;;;;;;;;5024128;28;20493;-66
2022/09/10 09:08:20;;;;;;;4.88;2.40;;;;;;;;;;5027827;28;20458;-64
2022/09/10 09:10:51;;;;;;;11.93;2.45;;;;;;;;;;5027256;28;20256;-64
2022/09/10 09:13:16;;;;;;;9.35;2.15;;;;;;;;;;5023605;28;20386;-65
2022/09/10 09:15:50;;;;;;;2.78;1.23;;;;;;;;;;5027128;28;20033;-65
2022/09/10 09:18:27;;;;;;;9.55;2.75;;;;;;;;;;5026028;28;20033;-66
2022/09/10 09:20:56;;;;;;;8.40;2.55;;;;;;;;;;5018445;28;20025;-66
2022/09/10 09:23:41;;;;;;;7.97;2.92;;;;;;;;;;5025434;28;20106;-65
2022/09/10 09:26:10;;;;;;;7.07;2.47;;;;;;;;;;5024139;28;20032;-66
2022/09/10 09:28:46;;;;;;;6.90;2.53;;;;;;;;;;5026534;28;20029;-66
2022/09/10 09:31:12;;;;;;;8.93;2.63;;;;;;;;;;5029471;28;20100;-66
2022/09/10 09:33:38;;;;;;;6.95;2.53;;;;;;;;;;5032591;28;20036;-66
2022/09/10 09:36:03;;;;;;;12.13;2.28;;;;;;;;;;5026271;28;20018;-65
2022/09/10 09:38:36;;;;;;;9.30;2.85;;;;;;;;;;5032599;28;20374;-65
2022/09/10 09:41:06;;;;;;;8.45;2.83;;;;;;;;;;5030549;28;20072;-66
2022/09/10 09:43:31;;;;;;;8.88;2.90;;;;;;;;;;5031330;28;20021;-66
2022/09/10 09:45:57;;;;;;;8.87;3.00;;;;;;;;;;5031088;28;20090;-65
2022/09/10 09:48:33;;;;;;;9.00;2.72;;;;;;;;;;5031525;28;20279;-67
2022/09/10 09:50:59;;;;;;;6.25;3.10;;;;;;;;;;5031081;28;20037;-66
2022/09/10 09:53:27;;;;;;;12.07;4.13;;;;;;;;;;5033473;28;20021;-65
2022/09/10 09:55:54;;;;;;;11.18;3.38;;;;;;;;;;5031700;28;20372;-66
2022/09/10 09:58:25;;;;;;;6.30;3.13;;;;;;;;;;5031880;28;20437;-65
2022/09/10 10:01:03;;;;;;;6.82;3.90;;;;;;;;;;5029728;28;20025;-68
2022/09/10 10:03:30;;;;;;;9.82;2.90;;;;;;;;;;5025744;28;20446;-66
2022/09/10 10:06:08;;;;;;;9.07;3.50;;;;;;;;;;5027218;28;20497;-65
2022/09/10 10:08:41;;;;;;;6.85;2.78;;;;;;;;;;5030953;28;20029;-66
2022/09/10 10:11:07;;;;;;;13.65;3.53;;;;;;;;;;5033081;28;20037;-67
2022/09/10 10:13:42;;;;;;;6.47;3.50;;;;;;;;;;5029428;28;20027;-67
2022/09/10 10:16:19;;;;;;;5.50;3.75;;;;;;;;;;5031770;28;20018;-66
2022/09/10 10:18:45;;;;;;;10.38;4.05;;;;;;;;;;5027409;28;20084;-66
2022/09/10 10:21:11;;;;;;;6.30;3.72;;;;;;;;;;5031579;28;20105;-66
2022/09/10 10:23:37;;;;;;;8.18;2.97;;;;;;;;;;5030888;28;20026;-67
2022/09/10 10:26:14;;;;;;;7.35;3.63;;;;;;;;;;5031285;28;20032;-67
2022/09/10 10:28:43;;;;;;;12.23;3.85;;;;;;;;;;5029540;28;20055;-66
2022/09/10 10:31:08;;;;;;;8.05;3.40;;;;;;;;;;5028977;28;20389;-66
2022/09/10 10:33:34;;;;;;;5.83;1.97;;;;;;;;;;5031616;28;20039;-66
2022/09/10 10:36:09;;;;;;;11.65;4.43;;;;;;;;;;5030438;28;20268;-68
2022/09/10 10:38:36;;;;;;;8.32;3.80;;;;;;;;;;5030684;28;20024;-68
2022/09/10 10:41:10;;;;;;;13.02;3.80;;;;;;;;;;5032474;28;20024;-68
2022/09/10 10:43:54;;;;;;;19.83;5.32;;;;;;;;;;5030866;28;20053;-68
2022/09/10 10:46:20;;;;;;;9.70;3.45;;;;;;;;;;5028669;28;20021;-68
2022/09/10 10:48:46;;;;;;;10.55;3.47;;;;;;;;;;5030377;28;20526;-68
2022/09/10 10:51:18;;;;;;;7.78;4.30;;;;;;;;;;5032416;28;20212;-67
2022/09/10 10:54:02;;;;;;;7.53;4.18;;;;;;;;;;5031253;28;20029;-66
2022/09/10 10:56:36;;;;;;;12.13;4.75;;;;;;;;;;5028893;28;20083;-66
2022/09/10 10:59:17;;;;;;;8.65;4.25;;;;;;;;;;5028884;28;20025;-66
2022/09/10 11:01:47;;;;;;;10.23;4.65;;;;;;;;;;5031003;28;20036;-66
2022/09/10 11:04:18;;;;;;;16.95;4.65;;;;;;;;;;5034050;28;20021;-66
2022/09/10 11:06:46;;;;;;;18.15;4.60;;;;;;;;;;5026724;28;20033;-68
2022/09/10 11:09:20;;;;;;;10.02;4.22;;;;;;;;;;5038613;28;20040;-67
2022/09/10 11:11:54;;;;;;;13.05;4.30;;;;;;;;;;5029632;28;20026;-66
2022/09/10 11:14:22;;;;;;;7.28;4.22;;;;;;;;;;5026327;28;20382;-66
2022/09/10 11:17:01;;;;;;;5.32;3.20;;;;;;;;;;5028923;28;20029;-66
2022/09/10 11:19:26;;;;;;;11.20;4.10;;;;;;;;;;5031787;28;20092;-66
2022/09/10 11:22:24;;;;;;;11.45;4.68;;;;;;;;;;5029107;28;20104;-65
2022/09/10 11:24:56;;;;;;;7.82;3.35;;;;;;;;;;5016363;28;20056;-66
2022/09/10 11:27:28;;;;;;;10.15;4.43;;;;;;;;;;5023175;28;20359;-67
2022/09/10 11:30:04;;;;;;;9.07;4.20;;;;;;;;;;5029524;28;20018;-67
2022/09/10 11:32:41;;;;;;;11.52;4.43;;;;;;;;;;5029920;28;20539;-67
2022/09/10 11:35:26;;;;;;;11.50;4.15;;;;;;;;;;5028103;28;20021;-66
2022/09/10 11:38:17;;;;;;;11.35;4.13;;;;;;;;;;5035998;28;20028;-67
2022/09/10 11:40:50;;;;;;;6.47;4.75;;;;;;;;;;5025305;28;20071;-67
2022/09/10 11:43:40;;;;;;;9.48;4.68;;;;;;;;;;5035327;28;20468;-67
2022/09/10 11:46:17;;;;;;;12.73;4.53;;;;;;;;;;5006978;28;20091;-67
2022/09/10 11:48:50;;;;;;;17.95;5.40;;;;;;;;;;5036016;28;20028;-67
2022/09/10 11:51:21;;;;;;;11.77;5.43;;;;;;;;;;5033175;28;20021;-67
2022/09/10 11:53:46;;;;;;;;;;;;;;;;;;5031569;28;20044;-69
2022/09/10 11:56:29;;;;;;;9.20;4.53;;;;;;;;;;5032544;28;19913;-66
2022/09/10 11:59:04;;;;;;;14.45;5.10;;;;;;;;;;5013355;28;20021;-69
2022/09/10 12:02:01;;;;;;;10.13;4.57;;;;;;;;;;5013286;28;20017;-69
2022/09/10 12:04:44;;;;;;;9.88;5.10;;;;;;;;;;5018696;28;20034;-68
2022/09/10 12:07:16;;;;;;;12.35;5.47;;;;;;;;;;5030321;28;20503;-68
2022/09/10 12:09:41;;;;;;;10.93;4.93;;;;;;;;;;5009224;28;20091;-66
2022/09/10 12:12:22;;;;;;;12.15;5.50;;;;;;;;;;5030536;28;20029;-69
2022/09/10 12:14:47;;;;;;;16.35;5.88;;;;;;;;;;5030836;28;20040;-66
2022/09/10 12:17:30;;;;;;;10.40;4.63;;;;;;;;;;5030823;28;20474;-67
2022/09/10 12:19:57;;;;;;;9.77;5.68;;;;;;;;;;5029731;28;20013;-67
2022/09/10 12:22:25;;;;;;;11.68;5.75;;;;;;;;;;5031239;28;20025;-66
2022/09/10 12:25:01;;;;;;;11.00;5.53;;;;;;;;;;5031396;28;20033;-67
2022/09/10 12:27:46;;;;;;;12.25;6.05;;;;;;;;;;5030764;28;20540;-67
2022/09/10 12:30:20;;;;;;;9.43;5.78;;;;;;;;;;5029246;28;20025;-70
2022/09/10 12:32:45;;;;;;;15.50;6.45;;;;;;;;;;5027826;28;20368;-70
2022/09/10 12:35:31;;;;;;;22.87;7.23;;;;;;;;;;5027007;28;20040;-67
2022/09/10 12:38:15;;;;;;;15.45;6.85;;;;;;;;;;5026295;28;20025;-66
2022/09/10 12:40:48;;;;;;;15.90;7.25;;;;;;;;;;5027129;28;20097;-66
2022/09/10 12:43:42;;;;;;;13.07;6.85;;;;;;;;;;5027892;28;20108;-66
2022/09/10 12:46:08;;;;;;;14.85;7.43;;;;;;;;;;4991719;28;20046;-68
2022/09/10 12:48:54;;;;;;;12.90;7.97;;;;;;;;;;5025150;28;20038;-68
2022/09/10 12:51:38;;;;;;;17.20;7.65;;;;;;;;;;5021334;28;20284;-68
2022/09/10 12:54:03;;;;;;;12.98;8.10;;;;;;;;;;5026637;28;20043;-68
2022/09/10 12:56:41;;;;;;;16.63;8.43;;;;;;;;;;5027746;28;20486;-70
2022/09/10 12:59:06;;;;;;;14.25;8.93;;;;;;;;;;5028618;28;20270;-67
2022/09/10 13:01:34;;;;;;;19.33;10.37;;;;;;;;;;5028234;28;20192;-67
2022/09/10 13:04:01;;;;;;;28.80;11.32;;;;;;;;;;5028592;28;20268;-66
2022/09/10 13:06:39;;;;;;;21.73;9.50;;;;;;;;;;5031004;28;20030;-68
2022/09/10 13:09:15;;;;;;;19.70;10.40;;;;;;;;;;5033989;28;20025;-68
2022/09/10 13:11:42;;;;;;;20.73;10.15;;;;;;;;;;5031934;28;20033;-68
2022/09/10 13:14:14;;;;;;;19.75;10.73;;;;;;;;;;5033313;28;20386;-67
2022/09/10 13:16:40;;;;;;;15.93;10.95;;;;;;;;;;5029356;28;20484;-66
2022/09/10 13:19:11;;;;;;;17.05;11.55;;;;;;;;;;5032756;28;20022;-67
2022/09/10 13:21:39;;;;;;;29.60;13.57;;;;;;;;;;5033199;28;20018;-66
2022/09/10 13:24:23;;;;;;;25.95;14.40;;;;;;;;;;5033359;28;20028;-68
2022/09/10 13:26:51;;;;;;;25.15;12.50;;;;;;;;;;5032773;28;20029;-68
2022/09/10 13:29:28;;;;;;;23.88;13.52;;;;;;;;;;5029621;28;20022;-67
2022/09/10 13:31:59;;;;;;;19.17;12.63;;;;;;;;;;5032654;28;20042;-67
2022/09/10 13:34:33;;;;;;;18.30;9.50;;;;;;;;;;5030157;28;20017;-68
2022/09/10 13:37:13;;;;;;;15.10;9.23;;;;;;;;;;5032286;28;20017;-68
2022/09/10 13:39:56;;;;;;;17.08;9.38;;;;;;;;;;5032307;28;20106;-68
2022/09/10 13:42:41;;;;;;;14.32;9.63;;;;;;;;;;5033272;28;20347;-68
2022/09/10 13:45:18;;;;;;;20.60;10.10;;;;;;;;;;5031820;28;20123;-67
2022/09/10 13:48:00;;;;;;;17.33;10.02;;;;;;;;;;5033456;28;20032;-67
2022/09/10 13:50:29;;;;;;;15.88;9.45;;;;;;;;;;5037436;28;20109;-67
2022/09/10 13:52:57;;;;;;;18.13;9.38;;;;;;;;;;5033160;28;20028;-68
2022/09/10 13:55:27;;;;;;;13.30;9.38;;;;;;;;;;5031906;28;20017;-67
2022/09/10 13:57:57;;;;;;;17.90;10.57;;;;;;;;;;5032318;28;20075;-68
2022/09/10 14:00:24;;;;;;;17.63;11.30;;;;;;;;;;5031128;28;20025;-67
2022/09/10 14:02:51;;;;;;;20.98;12.20;;;;;;;;;;5031785;28;20539;-68
2022/09/10 14:05:28;;;;;;;17.73;11.68;;;;;;;;;;5025985;28;20079;-67
2022/09/10 14:07:54;;;;;;;19.73;12.38;;;;;;;;;;5031121;28;20037;-68
2022/09/10 14:10:20;;;;;;;23.08;11.93;;;;;;;;;;5032001;28;20025;-68
2022/09/10 14:12:46;;;;;;;22.00;12.67;;;;;;;;;;5031696;28;20539;-67
2022/09/10 14:15:15;;;;;;;21.48;13.23;;;;;;;;;;5036858;28;20362;-68
2022/09/10 14:17:44;;;;;;;14.55;11.90;;;;;;;;;;5032306;28;20037;-65
2022/09/10 14:20:28;;;;;;;23.55;12.88;;;;;;;;;;5029812;28;20474;-66
2022/09/10 14:23:00;;;;;;;20.65;11.77;;;;;;;;;;5032715;28;20017;-66
2022/09/10 14:25:36;;;;;;;21.00;12.77;;;;;;;;;;5030578;28;20022;-67
2022/09/10 14:28:18;;;;;;;19.48;12.43;;;;;;;;;;5031831;28;20136;-66
2022/09/10 14:30:44;;;;;;;21.55;12.70;;;;;;;;;;5031414;28;20513;-66
2022/09/10 14:33:24;;;;;;;23.23;13.68;;;;;;;;;;5031366;28;20029;-66
2022/09/10 14:35:50;;;;;;;22.57;11.93;;;;;;;;;;5024586;28;20025;-67
2022/09/10 14:38:26;;;;;;;23.00;13.10;;;;;;;;;;5038095;28;20485;-68
2022/09/10 14:40:59;;;;;;;26.60;13.05;;;;;;;;;;5030102;28;20033;-67
2022/09/10 14:43:38;;;;;;;23.80;13.95;;;;;;;;;;5030725;28;20453;-67
2022/09/10 14:46:06;;;;;;;23.90;14.05;;;;;;;;;;5029851;28;20595;-66
2022/09/10 14:48:31;;;;;;;25.70;13.20;;;;;;;;;;5031073;28;20030;-67
2022/09/10 14:51:14;;;;;;;18.65;11.95;;;;;;;;;;5031574;28;20128;-67